createdAt,value
2018-09-03T00:00:30.479Z,5.40
2018-09-03T00:01:10.115Z,5.27
2018-09-03T00:01:50.226Z,5.03
2018-09-03T00:02:30.834Z,5.73
2018-09-03T00:03:10.422Z,5.40
2018-09-03T00:03:49.785Z,5.63
2018-09-03T00:04:29.141Z,5.27
2018-09-03T00:05:09.101Z,5.77
2018-09-03T00:05:48.561Z,5.57
2018-09-03T00:06:28.129Z,4.90
2018-09-03T00:07:07.888Z,5.33
2018-09-03T00:07:47.584Z,4.93
2018-09-03T00:08:27.201Z,5.77
2018-09-03T00:09:09.173Z,5.37
2018-09-03T00:09:48.797Z,4.83
2018-09-03T00:10:28.504Z,5.90
2018-09-03T00:11:08.163Z,4.63
2018-09-03T00:11:47.923Z,4.90
2018-09-03T00:12:27.303Z,5.10
2018-09-03T00:13:07.381Z,5.20
2018-09-03T00:13:47.182Z,4.90
2018-09-03T00:14:26.537Z,5.17
2018-09-03T00:15:06.880Z,4.77
2018-09-03T00:15:46.723Z,4.73
2018-09-03T00:16:26.341Z,5.20
2018-09-03T00:17:06.608Z,4.90
2018-09-03T00:17:45.929Z,4.67
2018-09-03T00:18:25.714Z,4.67
2018-09-03T00:19:05.442Z,4.80
2018-09-03T00:19:44.937Z,4.87
2018-09-03T00:20:24.981Z,4.90
2018-09-03T00:21:05.000Z,5.80
2018-09-03T00:21:44.612Z,4.83
2018-09-03T00:22:24.549Z,4.90
2018-09-03T00:23:04.192Z,4.80
2018-09-03T00:23:43.804Z,4.90
2018-09-03T00:24:23.411Z,4.40
2018-09-03T00:25:03.313Z,5.20
2018-09-03T00:25:42.834Z,5.10
2018-09-03T00:26:22.479Z,5.00
2018-09-03T00:27:02.151Z,4.83
2018-09-03T00:27:41.672Z,4.77
2018-09-03T00:28:21.287Z,5.30
2018-09-03T00:29:00.659Z,5.33
2018-09-03T00:29:40.053Z,5.03
2018-09-03T00:30:19.610Z,5.37
2018-09-03T00:31:04.434Z,5.07
2018-09-03T00:31:49.591Z,4.97
2018-09-03T00:32:34.615Z,5.70
2018-09-03T00:33:19.861Z,5.97
2018-09-03T00:34:04.937Z,4.83
2018-09-03T00:34:49.763Z,5.43
2018-09-03T00:35:34.524Z,5.27
2018-09-03T00:36:19.660Z,4.77
2018-09-03T00:37:04.489Z,5.77
2018-09-03T00:37:49.504Z,5.30
2018-09-03T00:38:34.731Z,5.57
2018-09-03T00:39:19.911Z,5.00
2018-09-03T00:40:04.861Z,4.80
2018-09-03T00:40:50.149Z,5.47
2018-09-03T00:41:35.680Z,6.40
2018-09-03T00:42:20.695Z,4.90
2018-09-03T00:43:05.993Z,6.00
2018-09-03T00:43:50.859Z,5.90
2018-09-03T00:44:36.151Z,5.90
2018-09-03T00:45:21.135Z,6.23
2018-09-03T00:46:06.451Z,5.63
2018-09-03T00:46:51.832Z,6.20
2018-09-03T00:47:31.155Z,6.57
2018-09-03T00:48:10.497Z,6.10
2018-09-03T00:48:50.699Z,7.03
2018-09-03T00:49:31.203Z,6.00
2018-09-03T00:50:11.083Z,6.40
2018-09-03T00:50:50.751Z,6.70
2018-09-03T00:51:30.671Z,6.10
2018-09-03T00:52:10.303Z,6.27
2018-09-03T00:52:49.911Z,5.83
2018-09-03T00:53:29.551Z,6.17
2018-09-03T00:54:09.217Z,6.30
2018-09-03T00:54:48.797Z,6.30
2018-09-03T00:55:28.717Z,6.30
2018-09-03T00:56:08.681Z,5.90
2018-09-03T00:56:48.349Z,6.10
2018-09-03T00:57:27.979Z,6.93
2018-09-03T00:58:07.601Z,6.40
2018-09-03T00:58:47.196Z,6.07
2018-09-03T00:59:26.873Z,5.70
2018-09-03T01:00:06.907Z,6.07
2018-09-03T01:00:46.679Z,6.50
2018-09-03T01:01:26.113Z,5.97
2018-09-03T01:02:05.649Z,5.60
2018-09-03T01:02:45.459Z,5.60
2018-09-03T01:03:24.836Z,6.20
2018-09-03T01:04:04.759Z,6.70
2018-09-03T01:04:44.684Z,6.00
2018-09-03T01:05:24.345Z,6.47
2018-09-03T01:06:04.287Z,6.20
2018-09-03T01:06:43.814Z,5.80
2018-09-03T01:07:23.291Z,7.00
2018-09-03T01:08:02.669Z,6.50
2018-09-03T01:08:42.295Z,6.70
2018-09-03T01:09:21.720Z,5.53
2018-09-03T01:10:01.301Z,5.77
2018-09-03T01:10:40.928Z,7.03
2018-09-03T01:11:24.283Z,6.03
2018-09-03T01:12:04.265Z,7.00
2018-09-03T01:12:43.794Z,6.70
2018-09-03T01:13:23.705Z,6.50
2018-09-03T01:14:03.708Z,6.67
2018-09-03T01:14:43.293Z,6.27
2018-09-03T01:15:23.179Z,7.13
2018-09-03T01:16:02.667Z,6.40
2018-09-03T01:16:42.221Z,6.70
2018-09-03T01:17:21.741Z,6.97
2018-09-03T01:18:02.421Z,6.50
2018-09-03T01:18:44.608Z,6.20
2018-09-03T01:19:24.114Z,7.30
2018-09-03T01:20:04.070Z,6.80
2018-09-03T01:20:43.649Z,7.30
2018-09-03T01:21:23.943Z,6.70
2018-09-03T01:22:03.410Z,6.97
2018-09-03T01:22:43.019Z,7.53
2018-09-03T01:23:25.511Z,6.77
2018-09-03T01:24:05.080Z,7.10
2018-09-03T01:24:44.715Z,6.63
2018-09-03T01:25:24.260Z,6.20
2018-09-03T01:26:04.193Z,7.00
2018-09-03T01:26:43.661Z,7.50
2018-09-03T01:27:23.143Z,6.70
2018-09-03T01:28:02.585Z,6.37
2018-09-03T01:28:42.206Z,6.70
2018-09-03T01:29:22.103Z,6.60
2018-09-03T01:30:01.476Z,7.43
2018-09-03T01:30:41.019Z,7.53
2018-09-03T01:31:21.566Z,6.70
2018-09-03T01:32:01.314Z,6.80
2018-09-03T01:32:40.865Z,7.13
2018-09-03T01:33:20.265Z,7.80
2018-09-03T01:33:59.841Z,7.10
2018-09-03T01:34:39.337Z,7.43
2018-09-03T01:35:19.005Z,7.60
2018-09-03T01:35:58.847Z,7.17
2018-09-03T01:36:38.454Z,8.53
2018-09-03T01:37:17.903Z,7.40
2018-09-03T01:37:57.333Z,7.67
2018-09-03T01:38:36.877Z,7.63
2018-09-03T01:39:16.432Z,8.07
2018-09-03T01:39:56.057Z,7.40
2018-09-03T01:40:35.669Z,6.93
2018-09-03T01:41:15.163Z,7.10
2018-09-03T01:41:54.817Z,7.23
2018-09-03T01:42:34.609Z,7.27
2018-09-03T01:43:14.146Z,8.23
2018-09-03T01:43:53.719Z,7.10
2018-09-03T01:44:33.451Z,7.23
2018-09-03T01:45:13.065Z,6.97
2018-09-03T01:45:52.727Z,8.07
2018-09-03T01:46:32.135Z,7.50
2018-09-03T01:47:11.761Z,8.30
2018-09-03T01:47:51.373Z,7.80
2018-09-03T01:48:31.003Z,7.37
2018-09-03T01:49:10.501Z,7.13
2018-09-03T01:49:50.129Z,7.30
2018-09-03T01:50:30.079Z,7.90
2018-09-03T01:51:09.697Z,7.10
2018-09-03T01:51:49.233Z,7.27
2018-09-03T01:52:28.627Z,7.07
2018-09-03T01:53:08.099Z,8.10
2018-09-03T01:53:47.667Z,7.30
2018-09-03T01:54:27.242Z,8.00
2018-09-03T01:55:06.991Z,6.37
2018-09-03T01:55:46.383Z,7.23
2018-09-03T01:56:25.902Z,7.57
2018-09-03T01:57:05.903Z,7.53
2018-09-03T01:57:45.435Z,7.60
2018-09-03T01:58:24.821Z,6.97
2018-09-03T01:59:04.813Z,7.07
2018-09-03T01:59:44.448Z,7.30
2018-09-03T02:01:09.629Z,6.40
2018-09-03T02:01:49.273Z,8.13
2018-09-03T02:02:28.821Z,7.10
2018-09-03T02:03:08.409Z,7.10
2018-09-03T02:03:48.424Z,7.70
2018-09-03T02:04:28.036Z,7.10
2018-09-03T02:05:07.611Z,8.00
2018-09-03T02:05:47.210Z,7.07
2018-09-03T02:06:27.419Z,6.67
2018-09-03T02:07:06.994Z,7.83
2018-09-03T02:07:46.931Z,7.50
2018-09-03T02:08:26.653Z,7.60
2018-09-03T02:09:10.544Z,8.60
2018-09-03T02:09:50.078Z,7.40
2018-09-03T02:10:29.422Z,6.90
2018-09-03T02:11:09.316Z,7.13
2018-09-03T02:11:49.281Z,7.60
2018-09-03T02:12:28.863Z,7.00
2018-09-03T02:13:08.487Z,8.37
2018-09-03T02:13:48.453Z,8.10
2018-09-03T02:14:27.995Z,7.90
2018-09-03T02:15:07.639Z,7.67
2018-09-03T02:15:47.689Z,6.80
2018-09-03T02:16:27.265Z,7.50
2018-09-03T02:17:07.072Z,7.23
2018-09-03T02:17:46.556Z,7.53
2018-09-03T02:18:26.277Z,7.90
2018-09-03T02:19:05.827Z,7.07
2018-09-03T02:19:45.239Z,7.40
2018-09-03T02:20:24.824Z,7.27
2018-09-03T02:21:04.600Z,8.10
2018-09-03T02:21:44.005Z,7.00
2018-09-03T02:22:23.615Z,6.70
2018-09-03T02:23:03.267Z,7.00
2018-09-03T02:23:42.820Z,8.57
2018-09-03T02:24:22.513Z,7.57
2018-09-03T02:25:02.098Z,7.80
2018-09-03T02:25:42.082Z,7.83
2018-09-03T02:26:21.759Z,7.73
2018-09-03T02:27:01.377Z,7.57
2018-09-03T02:27:41.389Z,7.00
2018-09-03T02:28:20.756Z,7.60
2018-09-03T02:29:00.142Z,7.50
2018-09-03T02:29:39.570Z,6.90
2018-09-03T02:30:19.610Z,7.10
2018-09-03T02:30:59.130Z,7.50
2018-09-03T02:31:38.749Z,6.63
2018-09-03T02:32:18.693Z,7.30
2018-09-03T02:32:58.677Z,7.97
2018-09-03T02:33:38.293Z,7.03
2018-09-03T02:34:17.786Z,7.33
2018-09-03T02:34:57.370Z,7.77
2018-09-03T02:35:37.317Z,7.40
2018-09-03T02:36:16.638Z,7.13
2018-09-03T02:36:56.602Z,7.77
2018-09-03T02:37:36.149Z,8.00
2018-09-03T02:38:15.734Z,7.43
2018-09-03T02:38:55.241Z,7.93
2018-09-03T02:39:34.974Z,7.23
2018-09-03T02:40:14.911Z,7.70
2018-09-03T02:40:54.245Z,7.50
2018-09-03T02:41:33.823Z,8.00
2018-09-03T02:42:13.886Z,7.00
2018-09-03T02:42:53.473Z,7.57
2018-09-03T02:43:33.029Z,7.90
2018-09-03T02:44:12.543Z,7.20
2018-09-03T02:44:52.164Z,7.60
2018-09-03T02:45:32.090Z,7.23
2018-09-03T02:46:11.944Z,7.20
2018-09-03T02:46:51.287Z,7.07
2018-09-03T02:47:30.825Z,7.07
2018-09-03T02:48:10.400Z,7.27
2018-09-03T02:48:49.999Z,7.43
2018-09-03T02:49:29.630Z,7.50
2018-09-03T02:50:09.675Z,7.27
2018-09-03T02:50:49.551Z,7.47
2018-09-03T02:51:28.919Z,8.57
2018-09-03T02:52:08.553Z,8.60
2018-09-03T02:52:48.543Z,7.07
2018-09-03T02:53:28.155Z,7.53
2018-09-03T02:54:08.025Z,7.30
2018-09-03T02:54:48.321Z,7.70
2018-09-03T02:55:27.707Z,7.20
2018-09-03T02:56:07.947Z,7.40
2018-09-03T02:56:47.853Z,7.67
2018-09-03T02:57:27.331Z,7.63
2018-09-03T02:58:07.372Z,7.83
2018-09-03T02:58:46.873Z,7.60
2018-09-03T02:59:26.828Z,7.53
2018-09-03T03:00:06.630Z,7.03
2018-09-03T03:00:46.286Z,7.90
2018-09-03T03:01:25.697Z,7.03
2018-09-03T03:02:04.995Z,7.20
2018-09-03T03:02:44.309Z,6.93
2018-09-03T03:03:24.044Z,8.30
2018-09-03T03:04:03.917Z,7.40
2018-09-03T03:04:43.891Z,8.13
2018-09-03T03:05:23.800Z,7.97
2018-09-03T03:06:03.737Z,7.60
2018-09-03T03:06:43.369Z,7.93
2018-09-03T03:07:22.790Z,7.80
2018-09-03T03:08:02.341Z,7.47
2018-09-03T03:08:42.684Z,7.20
2018-09-03T03:09:22.329Z,7.80
2018-09-03T03:10:01.872Z,6.87
2018-09-03T03:10:41.268Z,7.73
2018-09-03T03:11:20.864Z,7.53
2018-09-03T03:12:00.469Z,8.53
2018-09-03T03:12:40.055Z,7.27
2018-09-03T03:13:19.986Z,7.00
2018-09-03T03:13:59.987Z,7.77
2018-09-03T03:14:39.553Z,7.80
2018-09-03T03:15:19.293Z,7.60
2018-09-03T03:15:59.250Z,8.20
2018-09-03T03:16:38.608Z,7.87
2018-09-03T03:17:18.266Z,7.73
2018-09-03T03:17:58.193Z,7.57
2018-09-03T03:18:37.561Z,7.07
2018-09-03T03:19:17.262Z,7.93
2018-09-03T03:19:56.650Z,8.93
2018-09-03T03:20:36.591Z,7.97
2018-09-03T03:21:16.223Z,7.90
2018-09-03T03:21:55.702Z,7.70
2018-09-03T03:22:35.125Z,7.30
2018-09-03T03:23:14.880Z,7.43
2018-09-03T03:23:54.549Z,8.03
2018-09-03T03:24:33.938Z,8.90
2018-09-03T03:25:13.925Z,9.00
2018-09-03T03:25:53.526Z,7.90
2018-09-03T03:26:33.100Z,8.20
2018-09-03T03:27:13.077Z,8.30
2018-09-03T03:27:52.905Z,7.70
2018-09-03T03:28:32.311Z,8.10
2018-09-03T03:29:11.999Z,8.87
2018-09-03T03:29:51.590Z,8.80
2018-09-03T03:30:31.261Z,9.40
2018-09-03T03:31:10.778Z,8.40
2018-09-03T03:31:50.587Z,8.07
2018-09-03T03:32:30.568Z,9.07
2018-09-03T03:33:10.046Z,8.60
2018-09-03T03:33:49.417Z,9.20
2018-09-03T03:34:28.882Z,9.10
2018-09-03T03:35:10.059Z,7.90
2018-09-03T03:35:49.993Z,8.70
2018-09-03T03:36:29.959Z,8.50
2018-09-03T03:37:09.950Z,8.93
2018-09-03T03:37:49.888Z,8.70
2018-09-03T03:38:29.370Z,9.00
2018-09-03T03:39:09.442Z,9.93
2018-09-03T03:39:48.966Z,8.53
2018-09-03T03:40:28.663Z,8.50
2018-09-03T03:41:08.528Z,8.00
2018-09-03T03:41:48.157Z,8.13
2018-09-03T03:42:27.726Z,8.67
2018-09-03T03:43:08.190Z,8.30
2018-09-03T03:43:47.697Z,8.50
2018-09-03T03:44:27.360Z,8.70
2018-09-03T03:45:07.252Z,8.27
2018-09-03T03:45:46.918Z,8.73
2018-09-03T03:46:26.623Z,8.73
2018-09-03T03:47:13.257Z,8.43
2018-09-03T03:47:52.822Z,7.53
2018-09-03T03:48:32.318Z,8.73
2018-09-03T03:49:12.211Z,8.67
2018-09-03T03:49:51.934Z,9.53
2018-09-03T03:50:31.458Z,8.57
2018-09-03T03:51:11.118Z,8.77
2018-09-03T03:51:50.986Z,8.70
2018-09-03T03:52:30.345Z,8.00
2018-09-03T03:53:09.904Z,9.17
2018-09-03T03:53:49.498Z,9.23
2018-09-03T03:54:29.381Z,8.67
2018-09-03T03:55:09.406Z,8.40
2018-09-03T03:55:49.125Z,8.77
2018-09-03T03:56:28.516Z,8.03
2018-09-03T03:57:08.522Z,9.27
2018-09-03T03:57:48.188Z,8.57
2018-09-03T03:58:27.805Z,8.30
2018-09-03T03:59:07.475Z,8.13
2018-09-03T03:59:46.860Z,8.70
2018-09-03T04:00:26.471Z,8.70
2018-09-03T04:01:06.406Z,8.80
2018-09-03T04:01:45.844Z,9.73
2018-09-03T04:02:25.782Z,8.60
2018-09-03T04:03:05.282Z,9.30
2018-09-03T04:03:44.818Z,9.03
2018-09-03T04:04:24.367Z,8.40
2018-09-03T04:05:03.840Z,9.03
2018-09-03T04:05:43.805Z,9.30
2018-09-03T04:06:23.388Z,8.60
2018-09-03T04:07:03.078Z,9.47
2018-09-03T04:07:42.650Z,10.73
2018-09-03T04:09:10.056Z,9.40
2018-09-03T04:09:49.558Z,10.10
2018-09-03T04:10:28.991Z,9.57
2018-09-03T04:11:08.548Z,9.20
2018-09-03T04:11:47.975Z,9.50
2018-09-03T04:12:27.490Z,8.57
2018-09-03T04:13:07.243Z,10.23
2018-09-03T04:13:46.949Z,9.33
2018-09-03T04:14:26.979Z,9.73
2018-09-03T04:15:06.591Z,8.60
2018-09-03T04:15:45.996Z,9.30
2018-09-03T04:16:25.747Z,9.10
2018-09-03T04:17:05.522Z,9.50
2018-09-03T04:17:45.104Z,9.53
2018-09-03T04:18:24.916Z,9.20
2018-09-03T04:19:04.861Z,9.60
2018-09-03T04:19:48.887Z,9.13
2018-09-03T04:20:28.336Z,9.37
2018-09-03T04:21:14.700Z,9.27
2018-09-03T04:21:54.258Z,9.07
2018-09-03T04:22:34.410Z,8.63
2018-09-03T04:23:14.025Z,9.33
2018-09-03T04:23:53.584Z,9.13
2018-09-03T04:24:33.015Z,9.13
2018-09-03T04:25:12.905Z,7.97
2018-09-03T04:25:52.624Z,9.37
2018-09-03T04:26:32.458Z,9.13
2018-09-03T04:27:12.367Z,8.80
2018-09-03T04:27:53.062Z,10.37
2018-09-03T04:28:32.644Z,9.60
2018-09-03T04:29:12.098Z,8.80
2018-09-03T04:29:51.484Z,10.60
2018-09-03T04:30:31.128Z,9.27
2018-09-03T04:31:10.727Z,9.30
2018-09-03T04:31:50.655Z,8.67
2018-09-03T04:32:30.244Z,9.93
2018-09-03T04:33:09.586Z,8.57
2018-09-03T04:33:49.428Z,8.17
2018-09-03T04:34:28.770Z,8.57
2018-09-03T04:35:08.309Z,8.53
2018-09-03T04:35:48.133Z,8.43
2018-09-03T04:36:27.495Z,8.93
2018-09-03T04:37:07.146Z,8.10
2018-09-03T04:37:47.078Z,8.87
2018-09-03T04:38:26.442Z,8.50
2018-09-03T04:39:08.305Z,8.70
2018-09-03T04:39:47.742Z,8.40
2018-09-03T04:40:27.154Z,9.33
2018-09-03T04:41:07.482Z,8.60
2018-09-03T04:41:46.822Z,10.30
2018-09-03T04:42:26.440Z,8.60
2018-09-03T04:43:06.107Z,7.70
2018-09-03T04:43:45.722Z,9.13
2018-09-03T04:44:25.508Z,8.83
2018-09-03T04:45:05.546Z,8.57
2018-09-03T04:45:45.022Z,7.87
2018-09-03T04:46:24.748Z,8.27
2018-09-03T04:47:04.186Z,8.50
2018-09-03T04:47:43.759Z,8.30
2018-09-03T04:48:23.706Z,8.60
2018-09-03T04:49:03.269Z,8.70
2018-09-03T04:49:42.864Z,9.30
2018-09-03T04:50:22.516Z,8.60
2018-09-03T04:51:02.033Z,8.33
2018-09-03T04:51:41.870Z,8.90
2018-09-03T04:52:21.448Z,7.10
2018-09-03T04:53:01.398Z,7.60
2018-09-03T04:53:40.975Z,7.70
2018-09-03T04:54:20.391Z,8.23
2018-09-03T04:54:59.992Z,8.57
2018-09-03T04:55:39.353Z,8.60
2018-09-03T04:56:18.890Z,8.30
2018-09-03T04:56:58.553Z,7.60
2018-09-03T04:57:38.103Z,9.20
2018-09-03T04:58:17.968Z,9.47
2018-09-03T04:58:57.789Z,7.93
2018-09-03T04:59:37.658Z,8.40
2018-09-03T05:00:17.238Z,7.50
2018-09-03T05:00:56.827Z,7.80
2018-09-03T05:01:36.332Z,7.90
2018-09-03T05:02:16.248Z,7.80
2018-09-03T05:02:55.889Z,7.57
2018-09-03T05:03:35.927Z,8.27
2018-09-03T05:04:15.241Z,8.10
2018-09-03T05:04:54.567Z,7.10
2018-09-03T05:05:34.053Z,7.50
2018-09-03T05:06:13.579Z,7.47
2018-09-03T05:06:53.116Z,8.30
2018-09-03T05:07:32.692Z,8.17
2018-09-03T05:08:12.272Z,7.90
2018-09-03T05:08:52.187Z,8.07
2018-09-03T05:09:31.813Z,7.63
2018-09-03T05:10:12.144Z,6.90
2018-09-03T05:10:51.599Z,7.20
2018-09-03T05:11:31.211Z,7.40
2018-09-03T05:12:10.775Z,7.47
2018-09-03T05:12:50.737Z,8.03
2018-09-03T05:13:30.224Z,7.67
2018-09-03T05:14:10.173Z,7.60
2018-09-03T05:14:50.091Z,6.50
2018-09-03T05:15:29.621Z,7.30
2018-09-03T05:16:09.187Z,6.60
2018-09-03T05:16:48.691Z,6.97
2018-09-03T05:17:28.269Z,7.40
2018-09-03T05:18:07.926Z,7.37
2018-09-03T05:18:47.567Z,6.43
2018-09-03T05:19:27.187Z,6.87
2018-09-03T05:20:07.365Z,6.60
2018-09-03T05:20:46.925Z,7.23
2018-09-03T05:21:26.889Z,6.30
2018-09-03T05:22:06.273Z,7.40
2018-09-03T05:22:45.946Z,6.50
2018-09-03T05:23:25.939Z,6.50
2018-09-03T05:24:06.048Z,6.73
2018-09-03T05:24:45.650Z,7.17
2018-09-03T05:25:25.179Z,8.53
2018-09-03T05:26:04.774Z,6.23
2018-09-03T05:26:44.837Z,7.10
2018-09-03T05:27:24.271Z,8.27
2018-09-03T05:28:04.207Z,6.60
2018-09-03T05:28:43.726Z,6.73
2018-09-03T05:29:23.630Z,8.40
2018-09-03T05:30:03.144Z,6.37
2018-09-03T05:30:42.792Z,7.33
2018-09-03T05:31:22.539Z,7.47
2018-09-03T05:32:02.207Z,6.80
2018-09-03T05:32:41.803Z,6.60
2018-09-03T05:33:21.148Z,7.13
2018-09-03T05:34:01.087Z,6.67
2018-09-03T05:34:40.665Z,7.00
2018-09-03T05:35:20.705Z,7.90
2018-09-03T05:36:00.285Z,7.20
2018-09-03T05:36:39.729Z,5.90
2018-09-03T05:37:19.334Z,8.13
2018-09-03T05:37:58.845Z,6.60
2018-09-03T05:38:38.372Z,6.17
2018-09-03T05:39:17.999Z,7.07
2018-09-03T05:39:57.545Z,6.40
2018-09-03T05:40:37.135Z,5.80
2018-09-03T05:41:16.523Z,7.03
2018-09-03T05:41:56.003Z,6.17
2018-09-03T05:42:35.593Z,7.23
2018-09-03T05:43:15.313Z,6.50
2018-09-03T05:43:54.934Z,6.80
2018-09-03T05:44:34.587Z,5.50
2018-09-03T05:45:14.491Z,6.87
2018-09-03T05:45:54.198Z,6.43
2018-09-03T05:46:34.133Z,8.40
2018-09-03T05:47:13.991Z,6.73
2018-09-03T05:47:53.963Z,5.37
2018-09-03T05:48:33.451Z,6.80
2018-09-03T05:49:12.959Z,6.30
2018-09-03T05:49:52.493Z,5.90
2018-09-03T05:50:32.046Z,6.10
2018-09-03T05:51:11.620Z,6.20
2018-09-03T05:51:50.986Z,5.70
2018-09-03T05:52:30.589Z,6.90
2018-09-03T05:53:09.999Z,6.37
2018-09-03T05:53:49.522Z,6.03
2018-09-03T05:54:29.141Z,6.47
2018-09-03T05:55:08.725Z,5.53
2018-09-03T05:55:48.415Z,5.37
2018-09-03T05:56:27.698Z,5.60
2018-09-03T05:57:07.619Z,6.90
2018-09-03T05:57:47.231Z,6.20
2018-09-03T05:58:26.688Z,6.00
2018-09-03T05:59:06.589Z,6.40
2018-09-03T05:59:46.631Z,5.60
2018-09-03T06:00:26.242Z,6.50
2018-09-03T06:01:05.786Z,6.03
2018-09-03T06:01:45.641Z,6.37
2018-09-03T06:02:25.179Z,5.77
2018-09-03T06:03:05.320Z,6.43
2018-09-03T06:03:45.049Z,6.23
2018-09-03T06:04:24.702Z,6.33
2018-09-03T06:05:04.277Z,6.10
2018-09-03T06:05:43.872Z,6.33
2018-09-03T06:06:23.656Z,6.27
2018-09-03T06:07:03.332Z,6.00
2018-09-03T06:07:42.707Z,5.50
2018-09-03T06:08:22.270Z,6.17
2018-09-03T06:09:02.410Z,6.37
2018-09-03T06:09:42.285Z,5.50
2018-09-03T06:10:21.898Z,7.60
2018-09-03T06:11:01.930Z,6.10
2018-09-03T06:11:41.822Z,6.00
2018-09-03T06:12:21.687Z,5.83
2018-09-03T06:13:01.031Z,6.80
2018-09-03T06:13:40.638Z,6.60
2018-09-03T06:14:20.613Z,5.83
2018-09-03T06:15:00.179Z,6.00
2018-09-03T06:15:40.140Z,6.30
2018-09-03T06:16:20.255Z,6.47
2018-09-03T06:16:59.707Z,6.10
2018-09-03T06:17:39.266Z,6.00
2018-09-03T06:18:18.958Z,6.40
2018-09-03T06:18:58.599Z,5.80
2018-09-03T06:19:38.319Z,6.63
2018-09-03T06:20:17.900Z,5.60
2018-09-03T06:20:58.065Z,6.40
2018-09-03T06:21:37.622Z,6.27
2018-09-03T06:22:17.255Z,6.70
2018-09-03T06:22:56.558Z,6.63
2018-09-03T06:23:36.544Z,7.43
2018-09-03T06:24:16.025Z,5.80
2018-09-03T06:24:55.585Z,6.07
2018-09-03T06:25:35.355Z,7.00
2018-09-03T06:26:14.916Z,5.60
2018-09-03T06:26:54.250Z,4.57
2018-09-03T06:27:33.923Z,6.23
2018-09-03T06:28:13.718Z,6.40
2018-09-03T06:28:53.743Z,5.93
2018-09-03T06:29:33.303Z,7.00
2018-09-03T06:30:13.253Z,5.97
2018-09-03T06:30:53.225Z,6.70
2018-09-03T06:31:32.738Z,6.30
2018-09-03T06:32:12.341Z,5.53
2018-09-03T06:32:52.774Z,6.17
2018-09-03T06:33:32.240Z,5.53
2018-09-03T06:34:12.051Z,6.20
2018-09-03T06:34:51.691Z,6.60
2018-09-03T06:35:31.591Z,6.47
2018-09-03T06:36:11.204Z,6.00
2018-09-03T06:36:50.725Z,6.00
2018-09-03T06:37:30.338Z,5.67
2018-09-03T06:38:10.029Z,5.80
2018-09-03T06:38:49.675Z,5.43
2018-09-03T06:39:29.243Z,6.20
2018-09-03T06:40:08.963Z,5.53
2018-09-03T06:40:48.939Z,5.70
2018-09-03T06:41:28.481Z,6.60
2018-09-03T06:42:08.571Z,5.97
2018-09-03T06:42:48.053Z,5.40
2018-09-03T06:43:27.657Z,5.70
2018-09-03T06:44:07.425Z,5.47
2018-09-03T06:44:47.021Z,6.10
2018-09-03T06:45:26.959Z,7.10
2018-09-03T06:46:06.717Z,6.07
2018-09-03T06:46:46.320Z,5.70
2018-09-03T06:47:26.042Z,5.90
2018-09-03T06:48:05.789Z,6.17
2018-09-03T06:48:45.458Z,6.00
2018-09-03T06:49:25.405Z,5.90
2018-09-03T06:50:04.973Z,6.10
2018-09-03T06:50:44.641Z,7.40
2018-09-03T06:51:24.008Z,6.53
2018-09-03T06:52:03.651Z,6.83
2018-09-03T06:52:43.337Z,6.37
2018-09-03T06:53:23.358Z,6.00
2018-09-03T06:54:03.292Z,6.73
2018-09-03T06:54:42.737Z,6.37
2018-09-03T06:55:22.281Z,6.77
2018-09-03T06:56:02.018Z,6.07
2018-09-03T06:56:41.551Z,5.90
2018-09-03T06:57:21.093Z,6.30
2018-09-03T06:58:00.502Z,6.77
2018-09-03T06:58:39.847Z,6.30
2018-09-03T06:59:19.117Z,6.70
2018-09-03T06:59:58.465Z,6.13
2018-09-03T07:00:38.103Z,7.03
2018-09-03T07:01:17.559Z,6.63
2018-09-03T07:01:57.501Z,6.10
2018-09-03T07:02:37.083Z,6.00
2018-09-03T07:03:16.600Z,7.07
2018-09-03T07:03:55.959Z,7.30
2018-09-03T07:04:35.509Z,5.73
2018-09-03T07:05:15.419Z,5.90
2018-09-03T07:05:55.344Z,7.30
2018-09-03T07:06:34.929Z,5.57
2018-09-03T07:07:14.562Z,5.67
2018-09-03T07:07:54.089Z,6.67
2018-09-03T07:08:33.479Z,6.43
2018-09-03T07:09:13.039Z,6.27
2018-09-03T07:09:52.477Z,6.10
2018-09-03T07:10:31.981Z,5.70
2018-09-03T07:11:12.414Z,5.30
2018-09-03T07:11:52.310Z,6.03
2018-09-03T07:12:31.891Z,5.90
2018-09-03T07:13:11.589Z,5.87
2018-09-03T07:13:51.162Z,6.10
2018-09-03T07:14:30.923Z,5.70
2018-09-03T07:15:10.853Z,5.33
2018-09-03T07:15:50.279Z,6.63
2018-09-03T07:16:29.886Z,5.77
2018-09-03T07:17:09.624Z,6.40
2018-09-03T07:17:49.224Z,5.47
2018-09-03T07:18:28.772Z,5.40
2018-09-03T07:19:08.753Z,5.97
2018-09-03T07:19:48.329Z,5.33
2018-09-03T07:20:27.730Z,5.80
2018-09-03T07:21:07.185Z,5.80
2018-09-03T07:21:46.786Z,5.23
2018-09-03T07:22:26.567Z,5.53
2018-09-03T07:23:06.724Z,5.90
2018-09-03T07:23:46.184Z,5.97
2018-09-03T07:24:26.168Z,5.90
2018-09-03T07:25:06.119Z,5.27
2018-09-03T07:25:45.705Z,5.93
2018-09-03T07:26:25.123Z,5.80
2018-09-03T07:27:04.765Z,5.70
2018-09-03T07:27:44.237Z,6.10
2018-09-03T07:28:23.842Z,6.13
2018-09-03T07:29:03.572Z,5.03
2018-09-03T07:29:43.166Z,5.63
2018-09-03T07:30:23.203Z,6.40
2018-09-03T07:31:02.958Z,6.00
2018-09-03T07:31:42.855Z,5.80
2018-09-03T07:32:22.396Z,5.27
2018-09-03T07:33:01.792Z,5.57
2018-09-03T07:33:41.370Z,5.93
2018-09-03T07:34:21.253Z,5.57
2018-09-03T07:35:00.935Z,6.27
2018-09-03T07:35:40.644Z,5.83
2018-09-03T07:36:20.288Z,5.90
2018-09-03T07:36:59.912Z,5.67
2018-09-03T07:37:39.625Z,5.00
2018-09-03T07:38:19.183Z,5.30
2018-09-03T07:38:58.845Z,6.23
2018-09-03T07:39:38.794Z,5.43
2018-09-03T07:40:18.751Z,5.70
2018-09-03T07:40:58.341Z,5.37
2018-09-03T07:41:38.011Z,6.30
2018-09-03T07:42:17.641Z,4.90
2018-09-03T07:42:57.264Z,5.53
2018-09-03T07:43:37.230Z,5.73
2018-09-03T07:44:16.882Z,5.70
2018-09-03T07:44:56.558Z,5.43
2018-09-03T07:45:36.002Z,6.10
2018-09-03T07:46:15.369Z,5.33
2018-09-03T07:46:54.840Z,5.00
2018-09-03T07:47:34.319Z,4.90
2018-09-03T07:48:14.306Z,5.07
2018-09-03T07:48:53.875Z,5.90
2018-09-03T07:49:33.479Z,5.10
2018-09-03T07:50:13.227Z,5.80
2018-09-03T07:50:52.897Z,5.37
2018-09-03T07:51:32.999Z,5.50
2018-09-03T07:52:12.700Z,5.80
2018-09-03T07:52:52.213Z,5.77
2018-09-03T07:53:31.785Z,4.80
2018-09-03T07:54:11.367Z,6.70
2018-09-03T07:54:50.861Z,5.27
2018-09-03T07:55:30.225Z,5.10
2018-09-03T07:56:09.786Z,5.13
2018-09-03T07:56:49.371Z,5.00
2018-09-03T07:57:28.725Z,4.80
2018-09-03T07:58:08.817Z,5.70
2018-09-03T07:58:48.825Z,5.10
2018-09-03T07:59:28.433Z,5.70
2018-09-03T08:00:08.573Z,5.13
2018-09-03T08:00:48.013Z,5.90
2018-09-03T08:01:27.692Z,5.50
2018-09-03T08:02:07.386Z,5.47
2018-09-03T08:02:46.797Z,5.40
2018-09-03T08:03:26.467Z,5.30
2018-09-03T08:04:06.767Z,5.30
2018-09-03T08:04:46.338Z,6.10
2018-09-03T08:05:25.901Z,5.80
2018-09-03T08:06:05.858Z,5.23
2018-09-03T08:06:45.449Z,5.13
2018-09-03T08:07:25.016Z,5.00
2018-09-03T08:08:05.653Z,5.20
2018-09-03T08:08:45.239Z,5.60
2018-09-03T08:09:25.013Z,5.17
2018-09-03T08:10:04.601Z,5.60
2018-09-03T08:10:44.272Z,5.77
2018-09-03T08:11:24.149Z,5.63
2018-09-03T08:12:03.849Z,5.27
2018-09-03T08:12:43.483Z,5.93
2018-09-03T08:13:28.297Z,5.40
2018-09-03T08:14:08.267Z,5.50
2018-09-03T08:14:48.172Z,4.47
2018-09-03T08:15:27.838Z,5.50
2018-09-03T08:16:08.765Z,5.67
2018-09-03T08:16:48.293Z,5.60
2018-09-03T08:17:27.846Z,5.00
2018-09-03T08:18:07.426Z,5.40
2018-09-03T08:18:47.206Z,5.60
2018-09-03T08:19:27.108Z,4.97
2018-09-03T08:20:06.723Z,5.67
2018-09-03T08:20:46.347Z,5.10
2018-09-03T08:21:26.270Z,5.23
2018-09-03T08:22:06.153Z,5.27
2018-09-03T08:22:45.692Z,5.33
2018-09-03T08:23:25.375Z,5.40
2018-09-03T08:24:05.134Z,5.77
2018-09-03T08:24:44.497Z,4.50
2018-09-03T08:25:24.370Z,5.47
2018-09-03T08:26:04.684Z,4.97
2018-09-03T08:26:44.710Z,4.90
2018-09-03T08:27:24.215Z,4.60
2018-09-03T08:28:03.836Z,5.10
2018-09-03T08:28:43.379Z,4.93
2018-09-03T08:29:23.047Z,4.43
2018-09-03T08:30:02.515Z,4.40
2018-09-03T08:30:41.920Z,5.67
2018-09-03T08:31:21.676Z,5.80
2018-09-03T08:32:01.089Z,5.40
2018-09-03T08:32:40.485Z,5.67
2018-09-03T08:33:19.876Z,5.77
2018-09-03T08:33:59.411Z,4.90
2018-09-03T08:34:38.981Z,4.67
2018-09-03T08:35:19.499Z,4.80
2018-09-03T08:35:59.148Z,5.10
2018-09-03T08:36:38.845Z,5.43
2018-09-03T08:37:18.738Z,5.10
2018-09-03T08:37:58.562Z,5.23
2018-09-03T08:38:38.094Z,6.00
2018-09-03T08:39:18.222Z,5.37
2018-09-03T08:39:57.869Z,6.43
2018-09-03T08:40:37.540Z,5.70
2018-09-03T08:41:17.029Z,5.20
2018-09-03T08:41:56.600Z,4.70
2018-09-03T08:42:36.068Z,5.40
2018-09-03T08:43:16.010Z,5.23
2018-09-03T08:43:55.594Z,5.53
2018-09-03T08:44:35.172Z,5.13
2018-09-03T08:45:14.750Z,5.47
2018-09-03T08:45:54.345Z,5.30
2018-09-03T08:46:34.395Z,5.00
2018-09-03T08:47:13.772Z,5.27
2018-09-03T08:47:53.399Z,4.93
2018-09-03T08:48:33.027Z,4.50
2018-09-03T08:49:12.654Z,5.20
2018-09-03T08:49:52.543Z,4.70
2018-09-03T08:50:32.133Z,4.87
2018-09-03T08:51:11.636Z,5.17
2018-09-03T08:51:51.223Z,4.83
2018-09-03T08:52:30.817Z,4.53